Time;durP1;ratioP1;P1;durP2;ratioP2;P2;SDS_P1;SDS_P2;PMS_P1;PMS_P2;Temp;Humidity;BMP_temperature;BMP_pressure;BME280_temperature;BME280_humidity;BME280_pressure;Samples;Min_cycle;Max_cycle;Signal;HPM_P1;HPM_P2
2023/07/15 00:01:36;;;;;;;12.85;5.40;;;;;;;;;;5045258;28;22298;-71
2023/07/15 00:04:02;;;;;;;13.55;5.10;;;;;;;;;;5003182;28;20037;-71
2023/07/15 00:06:27;;;;;;;11.82;5.18;;;;;;;;;;5015344;28;20057;-72
2023/07/15 00:08:53;;;;;;;10.80;4.50;;;;;;;;;;5015617;28;20039;-72
2023/07/15 00:11:48;;;;;;;8.20;3.47;;;;;;;;;;5014167;28;20448;-71
2023/07/15 00:14:21;;;;;;;7.05;3.40;;;;;;;;;;5008940;28;20036;-71
2023/07/15 00:16:50;;;;;;;9.63;4.20;;;;;;;;;;5007972;28;20116;-71
2023/07/15 00:19:17;;;;;;;11.40;4.40;;;;;;;;;;5016843;28;20801;-71
2023/07/15 00:21:43;;;;;;;11.65;5.15;;;;;;;;;;4995017;28;20030;-71
2023/07/15 00:24:08;;;;;;;11.07;4.53;;;;;;;;;;4996039;28;20497;-71
2023/07/15 00:26:34;;;;;;;15.38;5.85;;;;;;;;;;4998826;28;20634;-71
2023/07/15 00:29:00;;;;;;;20.10;7.65;;;;;;;;;;5013449;28;20057;-67
2023/07/15 00:31:26;;;;;;;26.00;9.82;;;;;;;;;;5004264;28;20029;-69
2023/07/15 00:33:51;;;;;;;38.63;12.77;;;;;;;;;;4994828;28;20378;-70
2023/07/15 00:36:17;;;;;;;37.35;13.60;;;;;;;;;;5015343;28;20029;-71
2023/07/15 00:38:42;;;;;;;36.17;12.80;;;;;;;;;;5015942;28;20036;-70
2023/07/15 00:41:17;;;;;;;30.05;11.88;;;;;;;;;;5016824;28;20617;-73
2023/07/15 00:43:52;;;;;;;17.52;6.35;;;;;;;;;;5019292;28;20131;-70
2023/07/15 00:46:17;;;;;;;17.65;6.47;;;;;;;;;;5017466;28;20045;-71
2023/07/15 00:48:50;;;;;;;15.13;6.93;;;;;;;;;;5019525;28;20044;-69
2023/07/15 00:51:15;;;;;;;13.80;6.50;;;;;;;;;;5005571;28;20043;-70
2023/07/15 00:53:41;;;;;;;13.27;4.82;;;;;;;;;;4999873;28;22230;-70
2023/07/15 00:56:06;;;;;;;10.02;4.47;;;;;;;;;;5001929;28;20041;-69
2023/07/15 00:58:31;;;;;;;7.22;4.30;;;;;;;;;;5002400;28;20033;-70
2023/07/15 01:00:57;;;;;;;8.00;4.53;;;;;;;;;;5000311;28;20037;-69
2023/07/15 01:03:22;;;;;;;7.22;3.70;;;;;;;;;;4996283;28;20030;-68
2023/07/15 01:05:47;;;;;;;7.72;3.58;;;;;;;;;;5030593;28;20116;-70
2023/07/15 01:08:12;;;;;;;7.78;3.50;;;;;;;;;;4998263;28;20053;-71
2023/07/15 01:10:38;;;;;;;7.65;3.55;;;;;;;;;;5001844;28;20152;-68
2023/07/15 01:13:08;;;;;;;9.88;3.80;;;;;;;;;;4999476;28;20087;-72
2023/07/15 01:15:34;;;;;;;10.93;3.97;;;;;;;;;;4999967;28;20034;-71
2023/07/15 01:17:59;;;;;;;10.48;3.60;;;;;;;;;;5001449;28;20582;-70
2023/07/15 01:20:25;;;;;;;11.80;4.60;;;;;;;;;;5031254;28;20077;-70
2023/07/15 01:22:51;;;;;;;11.82;4.20;;;;;;;;;;4999417;28;20045;-70
2023/07/15 01:25:16;;;;;;;9.77;4.15;;;;;;;;;;5000035;28;20103;-71
2023/07/15 01:27:41;;;;;;;10.40;4.40;;;;;;;;;;5003264;28;20107;-72
2023/07/15 01:30:07;;;;;;;8.70;4.03;;;;;;;;;;4996828;28;20037;-70
2023/07/15 01:32:32;;;;;;;9.48;4.03;;;;;;;;;;4998123;28;22329;-71
2023/07/15 01:35:00;;;;;;;8.60;4.05;;;;;;;;;;4998410;28;20037;-70
2023/07/15 01:37:25;;;;;;;9.80;3.88;;;;;;;;;;4998910;28;20092;-70
2023/07/15 01:39:53;;;;;;;11.95;4.07;;;;;;;;;;4998416;28;20041;-70
2023/07/15 01:42:18;;;;;;;11.68;4.18;;;;;;;;;;5000313;28;20045;-71
2023/07/15 01:44:43;;;;;;;11.15;3.67;;;;;;;;;;5043655;28;20078;-71
2023/07/15 01:47:09;;;;;;;9.93;3.35;;;;;;;;;;5018729;28;20131;-71
2023/07/15 01:49:34;;;;;;;6.97;3.17;;;;;;;;;;5017358;28;20043;-70
2023/07/15 01:51:59;;;;;;;8.02;3.10;;;;;;;;;;5018542;28;20040;-70
2023/07/15 01:54:27;;;;;;;6.72;2.70;;;;;;;;;;5024346;28;20381;-70
2023/07/15 01:56:52;;;;;;;7.40;2.67;;;;;;;;;;5023525;28;20231;-70
2023/07/15 01:59:17;;;;;;;9.40;3.00;;;;;;;;;;5019442;28;20029;-70
2023/07/15 02:01:43;;;;;;;8.65;2.65;;;;;;;;;;5031230;28;20025;-71
2023/07/15 02:04:09;;;;;;;10.32;2.75;;;;;;;;;;5018057;28;20029;-70
2023/07/15 02:06:34;;;;;;;7.50;2.60;;;;;;;;;;5007520;28;20041;-70
2023/07/15 02:09:00;;;;;;;8.43;2.50;;;;;;;;;;4997518;28;20733;-70
2023/07/15 02:11:26;;;;;;;8.65;2.55;;;;;;;;;;4998872;28;20037;-71
2023/07/15 02:13:53;;;;;;;8.10;2.65;;;;;;;;;;4996411;28;20034;-71
2023/07/15 02:16:19;;;;;;;6.25;2.67;;;;;;;;;;4999402;28;20398;-71
2023/07/15 02:18:44;;;;;;;8.60;3.03;;;;;;;;;;5018348;28;20029;-71
2023/07/15 02:21:09;;;;;;;8.35;2.67;;;;;;;;;;5015956;28;20532;-70
2023/07/15 02:23:35;;;;;;;5.97;2.40;;;;;;;;;;5018746;28;20033;-70
2023/07/15 02:26:00;;;;;;;8.25;2.75;;;;;;;;;;5019197;28;20048;-72
2023/07/15 02:28:27;;;;;;;7.10;2.75;;;;;;;;;;5021242;28;20037;-70
2023/07/15 02:30:53;;;;;;;8.93;3.50;;;;;;;;;;5050484;28;20541;-71
2023/07/15 02:33:21;;;;;;;5.88;3.42;;;;;;;;;;5018411;28;20029;-71
2023/07/15 02:35:48;;;;;;;9.95;4.25;;;;;;;;;;5018321;28;20029;-72
2023/07/15 02:38:13;;;;;;;9.25;3.42;;;;;;;;;;5019352;28;20076;-70
2023/07/15 02:40:39;;;;;;;5.05;2.60;;;;;;;;;;5014412;28;20051;-71
2023/07/15 02:43:04;;;;;;;5.88;2.50;;;;;;;;;;5019517;28;20121;-71
2023/07/15 02:45:29;;;;;;;6.65;2.45;;;;;;;;;;5017628;28;20041;-72
2023/07/15 02:47:54;;;;;;;5.22;2.53;;;;;;;;;;5006489;28;20038;-71
2023/07/15 02:50:22;;;;;;;5.93;3.40;;;;;;;;;;4999051;28;20731;-70
2023/07/15 02:52:50;;;;;;;10.68;2.70;;;;;;;;;;4999314;28;20087;-69
2023/07/15 02:55:16;;;;;;;8.10;2.78;;;;;;;;;;4999151;28;20034;-72
2023/07/15 02:57:41;;;;;;;10.65;3.05;;;;;;;;;;4999249;28;20072;-72
2023/07/15 03:00:15;;;;;;;5.50;2.30;;;;;;;;;;5013186;28;20433;-72
2023/07/15 03:02:44;;;;;;;6.97;2.42;;;;;;;;;;5011528;28;20037;-72
2023/07/15 03:05:11;;;;;;;8.68;2.85;;;;;;;;;;4997807;28;20080;-71
2023/07/15 03:07:37;;;;;;;8.30;2.95;;;;;;;;;;4998388;28;20129;-70
2023/07/15 03:10:03;;;;;;;6.53;3.35;;;;;;;;;;5027079;28;20771;-71
2023/07/15 03:12:28;;;;;;;7.85;3.60;;;;;;;;;;4999300;28;20045;-71
2023/07/15 03:14:54;;;;;;;10.27;4.10;;;;;;;;;;4999042;28;20034;-72
2023/07/15 03:17:19;;;;;;;9.43;3.65;;;;;;;;;;5014113;28;20045;-70
2023/07/15 03:19:44;;;;;;;9.02;4.07;;;;;;;;;;5048157;28;20132;-71
2023/07/15 03:22:13;;;;;;;6.70;4.22;;;;;;;;;;5048547;28;20033;-70
2023/07/15 03:24:38;;;;;;;11.52;4.55;;;;;;;;;;5048337;28;20037;-70
2023/07/15 03:27:03;;;;;;;9.55;4.32;;;;;;;;;;5027566;28;20043;-71
2023/07/15 03:29:29;;;;;;;10.48;4.50;;;;;;;;;;5016331;28;20172;-70
2023/07/15 03:31:54;;;;;;;9.98;4.25;;;;;;;;;;5015729;28;20041;-71
2023/07/15 03:34:19;;;;;;;10.90;5.10;;;;;;;;;;5016629;28;20034;-69
2023/07/15 03:36:45;;;;;;;9.32;5.18;;;;;;;;;;5017071;28;20655;-71
2023/07/15 03:39:10;;;;;;;8.00;3.83;;;;;;;;;;5015688;28;20119;-71
2023/07/15 03:41:36;;;;;;;13.05;4.40;;;;;;;;;;5032484;28;20029;-71
2023/07/15 03:44:01;;;;;;;12.85;5.65;;;;;;;;;;5032772;28;20029;-70
2023/07/15 03:46:27;;;;;;;8.20;4.95;;;;;;;;;;5017686;28;20041;-71
2023/07/15 03:48:52;;;;;;;11.85;5.50;;;;;;;;;;5018335;28;20033;-69
2023/07/15 03:51:17;;;;;;;10.88;5.25;;;;;;;;;;5016775;28;20497;-70
2023/07/15 03:53:42;;;;;;;10.40;5.35;;;;;;;;;;5016157;28;20123;-71
2023/07/15 03:56:08;;;;;;;10.77;4.70;;;;;;;;;;5048559;28;20615;-70
2023/07/15 03:58:33;;;;;;;10.10;5.10;;;;;;;;;;5016059;28;20044;-70
2023/07/15 04:00:58;;;;;;;9.43;4.82;;;;;;;;;;5017868;28;20055;-72
2023/07/15 04:03:24;;;;;;;9.68;5.32;;;;;;;;;;5017781;28;20037;-69
2023/07/15 04:05:49;;;;;;;13.52;5.60;;;;;;;;;;5012188;28;20033;-72
2023/07/15 04:08:15;;;;;;;10.77;5.40;;;;;;;;;;5018276;28;20041;-70
2023/07/15 04:10:42;;;;;;;11.18;5.43;;;;;;;;;;5015643;28;20040;-71
2023/07/15 04:13:07;;;;;;;10.60;4.07;;;;;;;;;;5017826;28;20033;-70
2023/07/15 04:15:35;;;;;;;14.10;3.88;;;;;;;;;;5000906;28;20043;-71
2023/07/15 04:18:00;;;;;;;8.27;3.42;;;;;;;;;;5021454;28;20041;-71
2023/07/15 04:20:25;;;;;;;9.82;4.65;;;;;;;;;;5021034;28;20048;-69
2023/07/15 04:22:52;;;;;;;10.52;3.50;;;;;;;;;;5020249;28;20090;-70
2023/07/15 04:25:17;;;;;;;11.35;3.70;;;;;;;;;;5020812;28;20049;-71
2023/07/15 04:27:42;;;;;;;8.20;2.90;;;;;;;;;;5018566;28;20087;-71
2023/07/15 04:30:09;;;;;;;13.68;3.72;;;;;;;;;;5019352;28;20040;-71
2023/07/15 04:32:34;;;;;;;10.38;2.60;;;;;;;;;;5022469;28;20038;-71
2023/07/15 04:35:01;;;;;;;11.07;2.00;;;;;;;;;;5022701;28;20128;-69
2023/07/15 04:37:27;;;;;;;11.05;2.63;;;;;;;;;;5023457;28;20099;-70
2023/07/15 04:39:52;;;;;;;17.65;2.70;;;;;;;;;;5021374;28;20049;-70
2023/07/15 04:42:17;;;;;;;11.63;2.80;;;;;;;;;;5052439;28;20029;-70
2023/07/15 04:44:43;;;;;;;14.90;3.40;;;;;;;;;;5045794;28;20479;-71
2023/07/15 04:47:08;;;;;;;12.98;2.97;;;;;;;;;;4999261;28;20037;-68
2023/07/15 04:49:34;;;;;;;13.95;2.92;;;;;;;;;;5013565;28;20124;-69
2023/07/15 04:51:59;;;;;;;14.00;3.15;;;;;;;;;;5050420;28;20076;-69
2023/07/15 04:54:24;;;;;;;14.90;3.40;;;;;;;;;;5020171;28;20061;-71
2023/07/15 04:56:50;;;;;;;19.40;3.05;;;;;;;;;;5019194;28;20790;-70
2023/07/15 04:59:15;;;;;;;13.80;3.13;;;;;;;;;;5017141;28;20149;-70
2023/07/15 05:01:40;;;;;;;20.83;3.83;;;;;;;;;;5049031;28;20035;-70
2023/07/15 05:04:06;;;;;;;19.15;3.35;;;;;;;;;;5020594;28;20171;-69
2023/07/15 05:06:31;;;;;;;21.85;3.67;;;;;;;;;;5052066;28;20276;-68
2023/07/15 05:08:57;;;;;;;14.20;3.05;;;;;;;;;;5019831;28;20485;-72
2023/07/15 05:11:24;;;;;;;16.00;3.08;;;;;;;;;;5020054;28;20123;-71
2023/07/15 05:13:50;;;;;;;17.85;3.28;;;;;;;;;;5046919;28;20030;-69
2023/07/15 05:16:15;;;;;;;14.55;2.72;;;;;;;;;;5018967;28;20044;-70
2023/07/15 05:18:40;;;;;;;21.33;2.92;;;;;;;;;;5018182;28;20482;-69
2023/07/15 05:21:06;;;;;;;12.73;2.70;;;;;;;;;;5045660;28;20179;-69
2023/07/15 05:23:31;;;;;;;18.75;4.00;;;;;;;;;;4998132;28;20708;-69
2023/07/15 05:25:58;;;;;;;17.73;3.20;;;;;;;;;;4983585;28;20144;-69
2023/07/15 05:28:26;;;;;;;16.45;3.08;;;;;;;;;;5014702;28;20152;-69
2023/07/15 05:30:51;;;;;;;18.48;3.45;;;;;;;;;;5016362;28;20068;-72
2023/07/15 05:33:17;;;;;;;17.50;3.40;;;;;;;;;;5019161;28;20037;-72
2023/07/15 05:35:42;;;;;;;13.75;3.10;;;;;;;;;;5019175;28;20490;-73
2023/07/15 05:38:08;;;;;;;16.83;2.88;;;;;;;;;;5019489;28;20033;-71
2023/07/15 05:40:33;;;;;;;16.77;2.97;;;;;;;;;;5017432;28;20056;-68
2023/07/15 05:42:59;;;;;;;11.95;3.03;;;;;;;;;;5033484;28;20024;-72
2023/07/15 05:45:25;;;;;;;18.83;3.17;;;;;;;;;;5025948;28;20041;-70
2023/07/15 05:47:50;;;;;;;15.10;2.55;;;;;;;;;;5011229;28;20046;-72
2023/07/15 05:50:15;;;;;;;13.55;2.80;;;;;;;;;;5048148;28;20104;-71
2023/07/15 05:52:41;;;;;;;16.17;2.67;;;;;;;;;;5016624;28;20040;-71
2023/07/15 05:55:06;;;;;;;13.73;2.65;;;;;;;;;;5019231;28;20029;-70
2023/07/15 05:57:32;;;;;;;13.63;2.20;;;;;;;;;;5003402;28;20040;-71
2023/07/15 05:59:59;;;;;;;11.30;2.45;;;;;;;;;;4998686;28;20048;-71
2023/07/15 06:02:25;;;;;;;15.75;2.65;;;;;;;;;;4998724;28;20030;-72
2023/07/15 06:04:50;;;;;;;16.42;3.00;;;;;;;;;;4999882;28;20565;-69
2023/07/15 06:07:18;;;;;;;11.20;2.80;;;;;;;;;;4997002;28;20164;-71
2023/07/15 06:09:46;;;;;;;13.93;2.80;;;;;;;;;;5011688;28;22079;-70
2023/07/15 06:12:11;;;;;;;10.80;2.50;;;;;;;;;;5016600;28;20045;-67
2023/07/15 06:14:36;;;;;;;11.88;2.08;;;;;;;;;;5017871;28;20067;-72
2023/07/15 06:17:02;;;;;;;12.98;2.63;;;;;;;;;;5015924;28;22244;-70
2023/07/15 06:19:27;;;;;;;14.27;3.17;;;;;;;;;;5048448;28;20456;-70
2023/07/15 06:21:52;;;;;;;11.52;2.38;;;;;;;;;;5009023;28;20033;-70
2023/07/15 06:24:20;;;;;;;10.02;2.03;;;;;;;;;;5000070;28;20030;-71
2023/07/15 06:26:46;;;;;;;12.82;2.40;;;;;;;;;;4996669;28;20033;-69
2023/07/15 06:29:11;;;;;;;10.18;2.00;;;;;;;;;;5011442;28;20044;-68
2023/07/15 06:31:36;;;;;;;9.98;1.85;;;;;;;;;;5013102;28;20021;-69
2023/07/15 06:34:01;;;;;;;12.20;2.38;;;;;;;;;;5011696;28;20700;-71
2023/07/15 06:36:29;;;;;;;12.48;2.10;;;;;;;;;;5006418;28;20572;-71
2023/07/15 06:38:54;;;;;;;10.52;2.42;;;;;;;;;;4998521;28;20034;-69
2023/07/15 06:41:20;;;;;;;9.70;2.20;;;;;;;;;;5015347;28;20542;-68
2023/07/15 06:43:45;;;;;;;15.13;2.30;;;;;;;;;;5019405;28;20048;-71
2023/07/15 06:46:11;;;;;;;13.27;2.78;;;;;;;;;;5018858;28;20131;-70
2023/07/15 06:48:36;;;;;;;11.75;2.35;;;;;;;;;;5020112;28;20045;-69
2023/07/15 06:51:01;;;;;;;13.38;2.50;;;;;;;;;;5034141;28;20033;-69
2023/07/15 06:53:27;;;;;;;7.82;2.13;;;;;;;;;;5019177;28;20044;-70
2023/07/15 06:55:52;;;;;;;7.90;1.73;;;;;;;;;;5016979;28;20036;-72
2023/07/15 06:58:18;;;;;;;8.85;1.90;;;;;;;;;;5014889;28;20045;-70
2023/07/15 07:00:43;;;;;;;10.95;2.42;;;;;;;;;;5012537;28;20088;-68
2023/07/15 07:03:08;;;;;;;9.32;2.17;;;;;;;;;;5014938;28;20053;-72
2023/07/15 07:05:34;;;;;;;14.90;2.13;;;;;;;;;;5014787;28;20512;-70
2023/07/15 07:08:00;;;;;;;10.48;2.25;;;;;;;;;;5016319;28;20033;-71
2023/07/15 07:10:26;;;;;;;10.30;1.90;;;;;;;;;;5017939;28;20438;-71
2023/07/15 07:12:53;;;;;;;8.10;1.63;;;;;;;;;;5016642;28;20648;-72
2023/07/15 07:15:18;;;;;;;7.18;1.70;;;;;;;;;;5047424;28;20045;-69
2023/07/15 07:17:44;;;;;;;8.82;1.90;;;;;;;;;;5019553;28;20242;-70
2023/07/15 07:20:09;;;;;;;8.93;1.85;;;;;;;;;;5018346;28;20068;-68
2023/07/15 07:22:35;;;;;;;11.65;2.10;;;;;;;;;;5013671;28;20034;-70
2023/07/15 07:25:00;;;;;;;11.27;2.20;;;;;;;;;;5015587;28;20048;-69
2023/07/15 07:27:27;;;;;;;11.70;1.92;;;;;;;;;;5033710;28;20040;-69
2023/07/15 07:29:58;;;;;;;8.88;2.00;;;;;;;;;;5016930;28;20041;-67
2023/07/15 07:32:23;;;;;;;9.60;1.95;;;;;;;;;;5003234;28;20114;-69
2023/07/15 07:34:48;;;;;;;11.05;2.67;;;;;;;;;;5014535;28;20029;-70
2023/07/15 07:37:16;;;;;;;10.75;1.95;;;;;;;;;;5014094;28;20048;-69
2023/07/15 07:39:43;;;;;;;10.93;2.00;;;;;;;;;;5019041;28;22849;-70
2023/07/15 07:42:09;;;;;;;10.63;2.00;;;;;;;;;;5015914;28;20033;-70
2023/07/15 07:44:34;;;;;;;12.63;2.38;;;;;;;;;;5014748;28;20452;-69
2023/07/15 07:47:00;;;;;;;13.52;1.67;;;;;;;;;;5014294;28;20056;-71
2023/07/15 07:49:25;;;;;;;21.77;2.45;;;;;;;;;;5018144;28;20025;-70
2023/07/15 07:51:50;;;;;;;9.63;2.25;;;;;;;;;;5018492;28;20509;-69
2023/07/15 07:54:18;;;;;;;10.57;2.45;;;;;;;;;;5015141;28;20048;-68
2023/07/15 07:56:43;;;;;;;9.05;2.30;;;;;;;;;;5047938;28;20032;-68
2023/07/15 07:59:09;;;;;;;13.93;2.17;;;;;;;;;;5048093;28;20061;-69
2023/07/15 08:01:34;;;;;;;10.65;2.42;;;;;;;;;;5018158;28;20225;-68
2023/07/15 08:04:02;;;;;;;9.75;2.20;;;;;;;;;;5018261;28;20037;-71
2023/07/15 08:06:28;;;;;;;15.68;2.10;;;;;;;;;;5045816;28;20165;-70
2023/07/15 08:08:54;;;;;;;12.02;2.22;;;;;;;;;;5017132;28;20037;-68
2023/07/15 08:11:19;;;;;;;8.40;2.05;;;;;;;;;;5015940;28;20048;-68
2023/07/15 08:13:45;;;;;;;10.00;2.05;;;;;;;;;;5033901;28;20037;-68
2023/07/15 08:16:29;;;;;;;11.90;2.20;;;;;;;;;;5014725;28;20044;-67
2023/07/15 08:18:55;;;;;;;8.70;2.00;;;;;;;;;;5014920;28;20650;-69
2023/07/15 08:21:20;;;;;;;8.80;2.05;;;;;;;;;;5010905;28;20140;-69
2023/07/15 08:23:48;;;;;;;11.80;2.30;;;;;;;;;;5027818;28;20786;-70
2023/07/15 08:26:13;;;;;;;19.52;2.53;;;;;;;;;;5008271;28;20064;-69
2023/07/15 08:28:39;;;;;;;7.60;2.20;;;;;;;;;;5013973;28;20048;-69
2023/07/15 08:31:04;;;;;;;8.55;2.20;;;;;;;;;;4998690;28;20033;-68
2023/07/15 08:33:29;;;;;;;8.63;2.40;;;;;;;;;;5015062;28;20064;-67
2023/07/15 08:35:55;;;;;;;9.85;2.28;;;;;;;;;;5016505;28;20037;-68
2023/07/15 08:38:22;;;;;;;8.55;2.40;;;;;;;;;;5016547;28;20033;-68
2023/07/15 08:40:48;;;;;;;10.32;2.45;;;;;;;;;;5016939;28;20049;-68
2023/07/15 08:43:14;;;;;;;12.70;2.40;;;;;;;;;;5028380;28;20075;-68
2023/07/15 08:45:39;;;;;;;10.00;2.70;;;;;;;;;;5013210;28;20087;-69
2023/07/15 08:48:07;;;;;;;6.68;2.10;;;;;;;;;;4991647;28;20112;-69
2023/07/15 08:50:33;;;;;;;10.38;2.60;;;;;;;;;;5016872;28;20033;-68
2023/07/15 08:53:00;;;;;;;10.20;2.53;;;;;;;;;;5014261;28;20067;-69
2023/07/15 08:55:25;;;;;;;9.80;2.63;;;;;;;;;;5013382;28;20218;-68
2023/07/15 08:57:51;;;;;;;10.70;2.78;;;;;;;;;;4997470;28;20703;-69
2023/07/15 09:00:17;;;;;;;8.32;2.60;;;;;;;;;;5017377;28;20045;-69
2023/07/15 09:02:42;;;;;;;11.98;2.75;;;;;;;;;;5015180;28;20037;-69
2023/07/15 09:05:08;;;;;;;9.82;2.22;;;;;;;;;;5050722;28;20079;-72
2023/07/15 09:07:42;;;;;;;10.73;2.50;;;;;;;;;;5019548;28;20040;-70
2023/07/15 09:10:13;;;;;;;11.68;2.30;;;;;;;;;;5019515;28;20044;-68
2023/07/15 09:12:43;;;;;;;6.85;2.40;;;;;;;;;;5017878;28;20055;-69
2023/07/15 09:15:08;;;;;;;8.27;2.13;;;;;;;;;;5000228;28;20056;-70
2023/07/15 09:17:34;;;;;;;8.63;2.17;;;;;;;;;;4999393;28;20033;-69
2023/07/15 09:20:11;;;;;;;7.03;2.00;;;;;;;;;;4998757;28;20041;-70
2023/07/15 09:22:36;;;;;;;9.02;2.38;;;;;;;;;;4998739;28;20069;-68
2023/07/15 09:25:02;;;;;;;9.90;2.08;;;;;;;;;;4996882;28;20103;-70
2023/07/15 09:27:28;;;;;;;7.72;2.10;;;;;;;;;;4995945;28;20045;-68
2023/07/15 09:29:53;;;;;;;9.00;1.90;;;;;;;;;;4977854;28;20091;-71
2023/07/15 09:32:24;;;;;;;10.00;2.47;;;;;;;;;;4997584;28;20029;-72
2023/07/15 09:34:51;;;;;;;10.52;1.88;;;;;;;;;;4998020;28;20382;-70
2023/07/15 09:37:26;;;;;;;8.45;2.70;;;;;;;;;;4992520;28;20033;-70
2023/07/15 09:39:55;;;;;;;8.52;2.35;;;;;;;;;;5018457;28;20045;-71
2023/07/15 09:42:20;;;;;;;7.47;2.17;;;;;;;;;;5029749;28;20033;-72
2023/07/15 09:44:48;;;;;;;9.30;2.30;;;;;;;;;;5049021;28;20033;-72
2023/07/15 09:47:13;;;;;;;5.82;2.22;;;;;;;;;;5029336;28;20045;-70
2023/07/15 09:49:39;;;;;;;8.80;2.40;;;;;;;;;;5018589;28;20103;-70
2023/07/15 09:52:07;;;;;;;4.88;2.05;;;;;;;;;;5048923;28;20067;-69
2023/07/15 09:54:33;;;;;;;5.70;1.85;;;;;;;;;;5016851;28;20486;-69
2023/07/15 09:57:09;;;;;;;8.57;1.80;;;;;;;;;;5017555;28;20039;-71
2023/07/15 09:59:40;;;;;;;9.02;1.70;;;;;;;;;;5016080;28;20033;-68
2023/07/15 10:02:14;;;;;;;8.80;1.90;;;;;;;;;;5016627;28;20152;-70
2023/07/15 10:04:43;;;;;;;9.57;1.75;;;;;;;;;;5016877;28;20063;-68
2023/07/15 10:07:11;;;;;;;10.27;2.20;;;;;;;;;;5015448;28;20033;-71
2023/07/15 10:09:36;;;;;;;8.65;1.98;;;;;;;;;;5012984;28;20660;-66
2023/07/15 10:12:02;;;;;;;9.30;2.00;;;;;;;;;;5016272;28;20052;-66
2023/07/15 10:14:31;;;;;;;6.53;1.70;;;;;;;;;;5047209;28;20524;-71
2023/07/15 10:17:09;;;;;;;8.98;2.10;;;;;;;;;;5012972;28;20029;-68
2023/07/15 10:19:41;;;;;;;11.25;2.40;;;;;;;;;;5038239;28;20032;-68
2023/07/15 10:22:07;;;;;;;9.38;2.20;;;;;;;;;;5016945;28;20038;-70
2023/07/15 10:24:36;;;;;;;9.63;2.35;;;;;;;;;;5016799;28;20033;-70
2023/07/15 10:27:03;;;;;;;12.43;2.40;;;;;;;;;;5016352;28;20159;-69
2023/07/15 10:29:31;;;;;;;11.38;2.45;;;;;;;;;;4997737;28;20060;-70
2023/07/15 10:32:09;;;;;;;13.82;2.70;;;;;;;;;;4993182;28;20025;-67
2023/07/15 10:34:41;;;;;;;13.27;2.80;;;;;;;;;;4996402;28;20153;-71
2023/07/15 10:37:08;;;;;;;13.07;2.47;;;;;;;;;;5047124;28;20057;-71
2023/07/15 10:39:34;;;;;;;13.85;2.63;;;;;;;;;;5016160;28;20041;-70
2023/07/15 10:42:06;;;;;;;8.88;2.20;;;;;;;;;;5015521;28;20033;-68
2023/07/15 10:44:38;;;;;;;9.52;2.10;;;;;;;;;;5013700;28;20102;-70
2023/07/15 10:47:04;;;;;;;8.38;2.08;;;;;;;;;;4994190;28;20033;-69
2023/07/15 10:49:30;;;;;;;11.80;2.42;;;;;;;;;;5017437;28;20079;-69
2023/07/15 10:51:58;;;;;;;9.05;2.20;;;;;;;;;;5013757;28;20139;-69
2023/07/15 10:54:24;;;;;;;9.43;2.20;;;;;;;;;;5017609;28;20040;-73
2023/07/15 10:56:50;;;;;;;7.50;1.95;;;;;;;;;;5048723;28;20040;-72
2023/07/15 10:59:15;;;;;;;11.13;2.15;;;;;;;;;;5017212;28;20485;-72
2023/07/15 11:01:43;;;;;;;6.35;2.38;;;;;;;;;;5016923;28;20501;-73
2023/07/15 11:04:09;;;;;;;8.32;2.25;;;;;;;;;;5014390;28;20037;-74
2023/07/15 11:06:35;;;;;;;6.53;1.80;;;;;;;;;;5018126;28;20595;-71
2023/07/15 11:09:32;;;;;;;8.38;2.58;;;;;;;;;;5017121;28;20032;-72
2023/07/15 11:11:58;;;;;;;10.73;1.98;;;;;;;;;;4983691;28;22876;-71
2023/07/15 11:14:26;;;;;;;5.10;1.92;;;;;;;;;;5014468;28;20317;-72
2023/07/15 11:16:51;;;;;;;6.07;1.95;;;;;;;;;;5047635;28;20148;-67
2023/07/15 11:19:17;;;;;;;7.90;1.80;;;;;;;;;;5048300;28;20041;-69
2023/07/15 11:21:43;;;;;;;10.18;2.15;;;;;;;;;;5014245;28;20048;-71
2023/07/15 11:24:10;;;;;;;5.65;1.70;;;;;;;;;;5014933;28;20047;-71
2023/07/15 11:26:35;;;;;;;7.15;1.80;;;;;;;;;;5015141;28;20050;-69
2023/07/15 11:29:01;;;;;;;6.35;1.90;;;;;;;;;;5017230;28;20036;-71
2023/07/15 11:31:26;;;;;;;6.80;2.25;;;;;;;;;;5032236;28;20041;-71
2023/07/15 11:33:52;;;;;;;4.55;1.75;;;;;;;;;;5016852;28;20602;-72
2023/07/15 11:36:18;;;;;;;10.15;2.35;;;;;;;;;;5015460;28;20029;-71
2023/07/15 11:38:43;;;;;;;7.60;2.00;;;;;;;;;;5017200;28;20393;-73
2023/07/15 11:41:08;;;;;;;9.43;2.10;;;;;;;;;;5016763;28;20037;-73
2023/07/15 11:43:34;;;;;;;12.02;2.10;;;;;;;;;;5003249;28;20060;-70
2023/07/15 11:46:00;;;;;;;12.20;2.20;;;;;;;;;;5031825;28;20387;-74
2023/07/15 11:48:32;;;;;;;10.07;1.90;;;;;;;;;;5042468;28;20071;-74
2023/07/15 11:51:05;;;;;;;8.43;1.80;;;;;;;;;;5012279;28;20036;-75
2023/07/15 11:53:32;;;;;;;5.65;1.90;;;;;;;;;;5013918;28;20363;-74
2023/07/15 11:55:57;;;;;;;10.80;1.90;;;;;;;;;;5013964;28;20545;-69
2023/07/15 11:58:37;;;;;;;13.65;1.83;;;;;;;;;;5011208;28;20449;-73
2023/07/15 12:01:04;;;;;;;5.38;1.60;;;;;;;;;;5015583;28;20060;-75
2023/07/15 12:03:29;;;;;;;8.68;1.50;;;;;;;;;;5015388;28;20120;-74
2023/07/15 12:05:54;;;;;;;7.28;2.10;;;;;;;;;;5015618;28;20029;-74
2023/07/15 12:08:20;;;;;;;8.23;1.70;;;;;;;;;;5016711;28;20394;-74
2023/07/15 12:10:54;;;;;;;6.22;1.65;;;;;;;;;;5014916;28;20041;-73
2023/07/15 12:13:19;;;;;;;5.50;1.80;;;;;;;;;;5015351;28;20068;-74
2023/07/15 12:15:44;;;;;;;11.63;1.98;;;;;;;;;;5015936;28;20454;-74
2023/07/15 12:18:10;;;;;;;4.47;1.70;;;;;;;;;;5015290;28;20033;-75
2023/07/15 12:20:36;;;;;;;5.53;1.70;;;;;;;;;;5012888;28;20088;-72
2023/07/15 12:23:01;;;;;;;9.10;1.70;;;;;;;;;;5014766;28;20044;-73
2023/07/15 12:25:27;;;;;;;10.30;1.73;;;;;;;;;;5045523;28;20066;-75
2023/07/15 12:27:52;;;;;;;8.63;1.90;;;;;;;;;;5015949;28;20033;-72
2023/07/15 12:30:17;;;;;;;7.68;1.73;;;;;;;;;;5014721;28;20047;-72
2023/07/15 12:32:42;;;;;;;7.47;1.60;;;;;;;;;;4997661;28;20494;-73
2023/07/15 12:35:08;;;;;;;6.75;1.70;;;;;;;;;;4989182;28;20042;-72
2023/07/15 12:37:35;;;;;;;9.65;2.00;;;;;;;;;;4995382;28;20167;-71
2023/07/15 12:40:01;;;;;;;5.72;1.77;;;;;;;;;;5012647;28;20068;-72
2023/07/15 12:42:28;;;;;;;4.65;1.38;;;;;;;;;;5017058;28;20043;-74
2023/07/15 12:44:54;;;;;;;5.95;1.60;;;;;;;;;;5012495;28;20041;-74
2023/07/15 12:47:21;;;;;;;5.22;1.65;;;;;;;;;;5032407;28;20040;-71
2023/07/15 12:49:47;;;;;;;4.90;1.60;;;;;;;;;;5016530;28;20041;-72
2023/07/15 12:52:12;;;;;;;6.10;1.63;;;;;;;;;;5016529;28;20024;-73
2023/07/15 12:54:38;;;;;;;11.23;2.30;;;;;;;;;;5018203;28;20036;-74
2023/07/15 12:57:03;;;;;;;11.07;1.90;;;;;;;;;;4995820;28;20034;-72
2023/07/15 12:59:28;;;;;;;5.57;1.60;;;;;;;;;;5018339;28;20063;-70
2023/07/15 13:01:54;;;;;;;8.75;1.70;;;;;;;;;;5012763;28;20132;-72
2023/07/15 13:04:19;;;;;;;8.25;1.83;;;;;;;;;;5020589;28;20297;-72
2023/07/15 13:06:44;;;;;;;5.78;1.75;;;;;;;;;;5013363;28;20623;-74
2023/07/15 13:09:10;;;;;;;7.50;2.13;;;;;;;;;;5017070;28;20086;-73
2023/07/15 13:11:36;;;;;;;5.50;1.70;;;;;;;;;;5012390;28;20626;-72
2023/07/15 13:14:05;;;;;;;5.85;1.85;;;;;;;;;;5014788;28;22409;-70
2023/07/15 13:16:30;;;;;;;7.30;1.80;;;;;;;;;;5015901;28;20262;-66
2023/07/15 13:18:56;;;;;;;11.23;2.30;;;;;;;;;;5028247;28;20041;-68
2023/07/15 13:21:26;;;;;;;8.05;2.22;;;;;;;;;;5029127;28;20056;-69
2023/07/15 13:23:52;;;;;;;7.63;2.00;;;;;;;;;;5013944;28;20098;-69
2023/07/15 13:26:17;;;;;;;8.05;2.20;;;;;;;;;;5014300;28;20037;-68
2023/07/15 13:28:45;;;;;;;16.17;3.00;;;;;;;;;;5015808;28;20562;-66
2023/07/15 13:31:10;;;;;;;8.13;1.83;;;;;;;;;;5044540;28;20041;-69
2023/07/15 13:33:36;;;;;;;8.05;2.30;;;;;;;;;;5013338;28;20076;-69
2023/07/15 13:36:01;;;;;;;5.78;1.80;;;;;;;;;;5046447;28;20044;-69
2023/07/15 13:38:26;;;;;;;7.32;2.15;;;;;;;;;;5016130;28;20100;-67
2023/07/15 13:40:52;;;;;;;8.80;2.00;;;;;;;;;;5010120;28;20070;-67
2023/07/15 13:43:18;;;;;;;10.25;2.00;;;;;;;;;;5015652;28;20047;-67
2023/07/15 13:45:43;;;;;;;11.20;2.40;;;;;;;;;;5018858;28;20533;-70
2023/07/15 13:48:08;;;;;;;11.82;2.08;;;;;;;;;;5018468;28;20658;-66
2023/07/15 13:50:34;;;;;;;10.00;1.77;;;;;;;;;;5033429;28;20075;-68
2023/07/15 13:52:59;;;;;;;11.15;1.98;;;;;;;;;;5004498;28;20087;-68
2023/07/15 13:55:24;;;;;;;7.30;1.45;;;;;;;;;;5016306;28;20029;-68
2023/07/15 13:57:50;;;;;;;9.85;1.90;;;;;;;;;;5017037;28;20040;-69
2023/07/15 14:00:15;;;;;;;9.25;1.77;;;;;;;;;;5014675;28;20112;-69
2023/07/15 14:02:40;;;;;;;11.73;2.10;;;;;;;;;;5048363;28;20041;-69
2023/07/15 14:05:07;;;;;;;17.73;2.53;;;;;;;;;;5016772;28;20116;-70
2023/07/15 14:07:32;;;;;;;11.73;1.90;;;;;;;;;;5014986;28;20028;-67
2023/07/15 14:09:57;;;;;;;14.48;1.90;;;;;;;;;;5016330;28;20059;-67
2023/07/15 14:12:23;;;;;;;16.13;2.33;;;;;;;;;;5046626;28;20098;-68
2023/07/15 14:14:48;;;;;;;13.93;2.22;;;;;;;;;;5045846;28;20061;-67
2023/07/15 14:17:15;;;;;;;15.65;2.17;;;;;;;;;;5013335;28;20147;-65
2023/07/15 14:19:40;;;;;;;9.07;2.00;;;;;;;;;;5017290;28;20470;-67
2023/07/15 14:22:06;;;;;;;13.05;2.10;;;;;;;;;;4999496;28;20033;-68
2023/07/15 14:24:31;;;;;;;15.40;2.35;;;;;;;;;;4996614;28;20084;-68
2023/07/15 14:26:57;;;;;;;14.60;2.20;;;;;;;;;;5009688;28;20037;-69
2023/07/15 14:29:22;;;;;;;8.57;2.03;;;;;;;;;;5029033;28;20234;-67
2023/07/15 14:31:47;;;;;;;13.85;2.88;;;;;;;;;;5015602;28;20054;-67